Time;durP1;ratioP1;P1;durP2;ratioP2;P2;SDS_P1;SDS_P2;PMS_P1;PMS_P2;Temp;Humidity;BMP_temperature;BMP_pressure;BME280_temperature;BME280_humidity;BME280_pressure;Samples;Min_cycle;Max_cycle;Signal;HPM_P1;HPM_P2
2023/05/11 00:01:20;;;;;;;9.50;0.80;;;;;;;;;;5048119;28;20126;-49
2023/05/11 00:03:48;;;;;;;10.07;0.90;;;;;;;;;;5045153;28;20048;-47
2023/05/11 00:06:15;;;;;;;10.48;1.08;;;;;;;;;;5045904;28;20037;-45
2023/05/11 00:08:43;;;;;;;14.77;1.50;;;;;;;;;;5047500;28;20045;-48
2023/05/11 00:11:11;;;;;;;10.15;0.98;;;;;;;;;;5043226;28;20067;-48
2023/05/11 00:13:39;;;;;;;13.17;1.30;;;;;;;;;;5037571;28;20045;-46
2023/05/11 00:16:06;;;;;;;5.03;0.60;;;;;;;;;;5043013;28;20333;-45
2023/05/11 00:18:35;;;;;;;10.90;1.23;;;;;;;;;;5036236;28;20073;-47
2023/05/11 00:21:03;;;;;;;11.10;1.20;;;;;;;;;;5035591;28;20032;-46
2023/05/11 00:23:31;;;;;;;12.93;1.75;;;;;;;;;;5080465;28;20105;-50
2023/05/11 00:25:58;;;;;;;9.03;0.60;;;;;;;;;;5034724;28;20048;-46
2023/05/11 00:28:26;;;;;;;6.88;0.60;;;;;;;;;;5057621;28;20069;-46
2023/05/11 00:30:55;;;;;;;11.48;1.00;;;;;;;;;;5040205;28;20956;-47
2023/05/11 00:33:23;;;;;;;6.13;0.63;;;;;;;;;;5039659;28;20057;-48
2023/05/11 00:35:52;;;;;;;7.63;0.85;;;;;;;;;;5040586;28;20036;-45
2023/05/11 00:38:20;;;;;;;6.50;0.90;;;;;;;;;;5040353;28;20057;-49
2023/05/11 00:40:48;;;;;;;6.22;0.77;;;;;;;;;;5038076;28;20514;-45
2023/05/11 00:43:16;;;;;;;8.48;1.00;;;;;;;;;;5043077;28;20491;-50
2023/05/11 00:45:46;;;;;;;8.02;0.95;;;;;;;;;;5041590;28;20066;-49
2023/05/11 00:48:14;;;;;;;14.48;1.00;;;;;;;;;;5043296;28;20068;-49
2023/05/11 00:50:42;;;;;;;12.63;0.90;;;;;;;;;;5042627;28;20045;-45
2023/05/11 00:53:12;;;;;;;12.75;1.17;;;;;;;;;;5039387;28;20580;-46
2023/05/11 00:55:39;;;;;;;6.85;1.20;;;;;;;;;;5049908;28;20451;-46
2023/05/11 00:58:07;;;;;;;11.32;1.55;;;;;;;;;;5037065;28;20589;-48
2023/05/11 01:00:35;;;;;;;12.45;1.60;;;;;;;;;;5042555;28;20079;-47
2023/05/11 01:03:04;;;;;;;11.87;1.30;;;;;;;;;;5036214;28;20037;-45
2023/05/11 01:05:35;;;;;;;6.28;1.25;;;;;;;;;;5044028;28;20041;-50
2023/05/11 01:08:06;;;;;;;15.50;1.52;;;;;;;;;;5050714;28;20036;-49
2023/05/11 01:10:41;;;;;;;9.38;1.10;;;;;;;;;;5039482;28;20057;-46
2023/05/11 01:13:13;;;;;;;11.65;1.92;;;;;;;;;;5037133;28;20084;-46
2023/05/11 01:15:44;;;;;;;5.53;1.13;;;;;;;;;;5051877;28;20045;-49
2023/05/11 01:18:18;;;;;;;11.77;1.55;;;;;;;;;;5039632;28;20044;-47
2023/05/11 01:20:47;;;;;;;7.32;1.90;;;;;;;;;;5084738;28;20036;-46
2023/05/11 01:23:38;;;;;;;11.32;1.40;;;;;;;;;;5038178;28;20089;-48
2023/05/11 01:26:11;;;;;;;7.22;1.35;;;;;;;;;;4987371;28;20755;-46
2023/05/11 01:28:49;;;;;;;9.70;1.53;;;;;;;;;;5049227;28;20064;-46
2023/05/11 01:31:19;;;;;;;7.80;1.80;;;;;;;;;;5048780;28;20223;-47
2023/05/11 01:33:49;;;;;;;12.48;1.35;;;;;;;;;;5044263;28;20135;-47
2023/05/11 01:36:19;;;;;;;9.50;1.73;;;;;;;;;;5053914;28;20055;-45
2023/05/11 01:38:49;;;;;;;8.82;1.45;;;;;;;;;;5056812;28;20520;-47
2023/05/11 01:41:18;;;;;;;12.63;1.27;;;;;;;;;;5044388;28;20114;-46
2023/05/11 01:43:47;;;;;;;12.85;1.63;;;;;;;;;;5050000;28;20115;-45
2023/05/11 01:46:16;;;;;;;18.50;2.17;;;;;;;;;;5049522;28;20040;-47
2023/05/11 01:48:47;;;;;;;14.73;2.00;;;;;;;;;;5051383;28;20146;-44
2023/05/11 01:51:16;;;;;;;13.60;1.25;;;;;;;;;;5037489;28;20232;-45
2023/05/11 01:53:44;;;;;;;10.17;1.43;;;;;;;;;;5045709;28;20044;-48
2023/05/11 01:56:13;;;;;;;8.27;1.50;;;;;;;;;;5042566;28;20041;-47
2023/05/11 01:58:42;;;;;;;13.70;1.95;;;;;;;;;;5050472;28;20040;-46
2023/05/11 02:01:10;;;;;;;10.00;1.35;;;;;;;;;;5036604;28;20128;-46
2023/05/11 02:03:39;;;;;;;18.35;2.25;;;;;;;;;;5050013;28;20032;-46
2023/05/11 02:06:10;;;;;;;28.80;2.43;;;;;;;;;;5045344;28;20090;-47
2023/05/11 02:08:39;;;;;;;14.25;1.73;;;;;;;;;;5036941;28;20090;-46
2023/05/11 02:11:07;;;;;;;10.10;2.00;;;;;;;;;;5050989;28;20486;-46
2023/05/11 02:13:35;;;;;;;8.25;2.17;;;;;;;;;;5058603;28;20069;-48
2023/05/11 02:16:04;;;;;;;16.75;2.13;;;;;;;;;;5040933;28;20114;-46
2023/05/11 02:18:32;;;;;;;13.50;2.13;;;;;;;;;;5041587;28;20041;-44
2023/05/11 02:21:01;;;;;;;16.15;2.22;;;;;;;;;;5059619;28;20157;-44
2023/05/11 02:23:31;;;;;;;10.55;1.90;;;;;;;;;;5045851;28;20091;-46
2023/05/11 02:25:59;;;;;;;10.40;2.13;;;;;;;;;;5031434;28;20037;-44
2023/05/11 02:28:26;;;;;;;17.27;2.30;;;;;;;;;;5046293;28;20037;-46
2023/05/11 02:30:56;;;;;;;11.87;2.20;;;;;;;;;;5029710;28;20037;-47
2023/05/11 02:33:25;;;;;;;10.50;2.30;;;;;;;;;;5034992;28;20037;-45
2023/05/11 02:35:55;;;;;;;11.45;2.40;;;;;;;;;;5048770;28;20128;-45
2023/05/11 02:38:25;;;;;;;14.13;2.22;;;;;;;;;;5046760;28;20060;-48
2023/05/11 02:40:57;;;;;;;14.43;2.45;;;;;;;;;;5043725;28;20090;-48
2023/05/11 02:43:29;;;;;;;20.50;1.97;;;;;;;;;;5029809;28;20090;-46
2023/05/11 02:45:59;;;;;;;8.50;2.05;;;;;;;;;;5048747;28;20111;-48
2023/05/11 02:48:28;;;;;;;12.63;2.05;;;;;;;;;;5050044;28;20037;-45
2023/05/11 02:50:56;;;;;;;11.75;1.98;;;;;;;;;;5045615;28;20045;-49
2023/05/11 02:53:25;;;;;;;15.63;2.38;;;;;;;;;;5041721;28;20055;-46
2023/05/11 02:55:55;;;;;;;12.40;2.37;;;;;;;;;;5049102;28;20268;-45
2023/05/11 02:58:23;;;;;;;17.25;2.42;;;;;;;;;;5045820;28;20806;-47
2023/05/11 03:00:50;;;;;;;18.90;2.45;;;;;;;;;;5043806;28;20036;-48
2023/05/11 03:03:18;;;;;;;19.67;2.92;;;;;;;;;;5044671;28;20549;-46
2023/05/11 03:05:46;;;;;;;10.68;2.30;;;;;;;;;;5048665;28;20511;-47
2023/05/11 03:08:14;;;;;;;14.00;2.93;;;;;;;;;;5053388;28;20149;-46
2023/05/11 03:10:42;;;;;;;9.93;2.60;;;;;;;;;;5031660;28;20053;-51
2023/05/11 03:13:12;;;;;;;13.27;2.33;;;;;;;;;;5023765;28;20673;-48
2023/05/11 03:15:40;;;;;;;10.65;2.63;;;;;;;;;;5053175;28;20131;-47
2023/05/11 03:18:09;;;;;;;10.55;2.60;;;;;;;;;;5050899;28;20094;-48
2023/05/11 03:20:38;;;;;;;9.30;2.17;;;;;;;;;;5032348;28;20123;-45
2023/05/11 03:23:06;;;;;;;9.63;2.40;;;;;;;;;;5040362;28;20542;-48
2023/05/11 03:25:34;;;;;;;10.60;2.40;;;;;;;;;;5042000;28;20061;-47
2023/05/11 03:28:04;;;;;;;11.10;1.85;;;;;;;;;;5036244;28;20132;-45
2023/05/11 03:30:33;;;;;;;13.18;2.85;;;;;;;;;;5049265;28;20079;-47
2023/05/11 03:33:01;;;;;;;13.63;3.57;;;;;;;;;;5039651;28;20060;-50
2023/05/11 03:35:31;;;;;;;15.38;2.53;;;;;;;;;;5077003;28;20155;-47
2023/05/11 03:37:59;;;;;;;17.58;2.75;;;;;;;;;;5043185;28;20057;-49
2023/05/11 03:40:30;;;;;;;15.13;2.90;;;;;;;;;;5036695;28;20040;-47
2023/05/11 03:42:59;;;;;;;22.40;3.40;;;;;;;;;;5033554;28;20087;-45
2023/05/11 03:45:27;;;;;;;12.27;2.50;;;;;;;;;;5036079;28;20114;-46
2023/05/11 03:47:57;;;;;;;18.73;2.83;;;;;;;;;;5050263;28;20081;-46
2023/05/11 03:50:24;;;;;;;11.88;2.97;;;;;;;;;;5037247;28;20032;-48
2023/05/11 03:52:52;;;;;;;12.48;2.42;;;;;;;;;;5041632;28;20036;-46
2023/05/11 03:55:20;;;;;;;15.38;2.88;;;;;;;;;;5041071;28;20061;-50
2023/05/11 03:57:48;;;;;;;11.50;3.07;;;;;;;;;;5040437;28;20028;-47
2023/05/11 04:00:16;;;;;;;13.73;2.85;;;;;;;;;;5046410;28;20043;-46
2023/05/11 04:02:44;;;;;;;10.63;2.20;;;;;;;;;;5049758;28;20033;-47
2023/05/11 04:05:14;;;;;;;15.48;2.70;;;;;;;;;;5041728;28;20032;-46
2023/05/11 04:07:42;;;;;;;14.93;2.78;;;;;;;;;;5037281;28;20064;-47
2023/05/11 04:10:10;;;;;;;10.57;2.80;;;;;;;;;;5072348;28;20499;-51
2023/05/11 04:12:37;;;;;;;13.45;2.42;;;;;;;;;;5037687;28;20037;-46
2023/05/11 04:15:05;;;;;;;15.35;2.40;;;;;;;;;;5079995;28;20060;-49
2023/05/11 04:17:33;;;;;;;9.90;2.33;;;;;;;;;;5045726;28;20085;-49
2023/05/11 04:20:02;;;;;;;11.48;2.67;;;;;;;;;;5038019;28;20507;-50
2023/05/11 04:22:31;;;;;;;17.03;3.00;;;;;;;;;;5044551;28;20512;-45
2023/05/11 04:24:59;;;;;;;17.83;3.15;;;;;;;;;;5042391;28;20046;-46
2023/05/11 04:27:26;;;;;;;9.20;2.50;;;;;;;;;;5040580;28;20583;-45
2023/05/11 04:29:58;;;;;;;13.65;2.95;;;;;;;;;;5045304;28;20044;-47
2023/05/11 04:32:27;;;;;;;17.13;2.85;;;;;;;;;;5044968;28;20037;-49
2023/05/11 04:34:54;;;;;;;10.73;2.10;;;;;;;;;;5039866;28;20166;-48
2023/05/11 04:37:22;;;;;;;13.43;2.97;;;;;;;;;;5053349;28;20238;-48
2023/05/11 04:39:51;;;;;;;14.32;3.00;;;;;;;;;;5031684;28;20067;-49
2023/05/11 04:42:19;;;;;;;16.65;2.70;;;;;;;;;;5052228;28;20102;-47
2023/05/11 04:44:47;;;;;;;17.83;2.92;;;;;;;;;;5047358;28;20588;-46
2023/05/11 04:47:15;;;;;;;14.47;2.13;;;;;;;;;;5041082;28;20538;-46
2023/05/11 04:49:43;;;;;;;13.10;2.53;;;;;;;;;;5055332;28;21420;-47
2023/05/11 04:52:10;;;;;;;11.85;2.80;;;;;;;;;;5045155;28;20040;-47
2023/05/11 04:54:39;;;;;;;11.77;2.80;;;;;;;;;;5045822;28;20655;-46
2023/05/11 04:57:08;;;;;;;14.18;2.83;;;;;;;;;;5046883;28;20127;-48
2023/05/11 04:59:36;;;;;;;19.37;2.17;;;;;;;;;;5056819;28;20044;-45
2023/05/11 05:02:03;;;;;;;11.43;2.38;;;;;;;;;;5045948;28;20214;-47
2023/05/11 05:04:31;;;;;;;11.35;2.38;;;;;;;;;;5055178;28;20047;-47
2023/05/11 05:07:03;;;;;;;12.57;2.45;;;;;;;;;;5035947;28;20032;-46
2023/05/11 05:09:30;;;;;;;12.02;2.45;;;;;;;;;;5039196;28;20442;-46
2023/05/11 05:11:58;;;;;;;13.20;2.10;;;;;;;;;;5035659;28;20040;-45
2023/05/11 05:14:27;;;;;;;15.65;2.60;;;;;;;;;;5038301;28;20068;-46
2023/05/11 05:16:55;;;;;;;10.30;1.67;;;;;;;;;;5045912;28;20507;-47
2023/05/11 05:19:23;;;;;;;15.90;2.53;;;;;;;;;;5045136;28;20044;-46
2023/05/11 05:21:52;;;;;;;12.57;2.40;;;;;;;;;;5052161;28;20086;-45
2023/05/11 05:24:20;;;;;;;11.27;2.40;;;;;;;;;;5039218;28;20065;-46
2023/05/11 05:26:48;;;;;;;8.80;2.17;;;;;;;;;;5042752;28;20037;-47
2023/05/11 05:29:16;;;;;;;16.15;2.50;;;;;;;;;;5046618;28;20578;-44
2023/05/11 05:31:46;;;;;;;9.60;2.15;;;;;;;;;;5036282;28;20403;-46
2023/05/11 05:34:13;;;;;;;11.77;2.53;;;;;;;;;;5037391;28;20548;-48
2023/05/11 05:36:43;;;;;;;15.50;2.30;;;;;;;;;;5032942;28;20658;-46
2023/05/11 05:39:11;;;;;;;8.15;2.03;;;;;;;;;;5051796;28;20611;-45
2023/05/11 05:41:40;;;;;;;14.10;2.45;;;;;;;;;;5048005;28;21314;-47
2023/05/11 05:44:08;;;;;;;11.02;2.10;;;;;;;;;;5048345;28;20065;-48
2023/05/11 05:46:36;;;;;;;16.70;2.42;;;;;;;;;;5036010;28;20036;-48
2023/05/11 05:49:05;;;;;;;8.83;2.13;;;;;;;;;;5058230;28;20487;-46
2023/05/11 05:51:32;;;;;;;12.23;2.10;;;;;;;;;;5049308;28;20130;-46
2023/05/11 05:54:00;;;;;;;13.32;2.53;;;;;;;;;;5033713;28;20071;-46
2023/05/11 05:56:28;;;;;;;9.82;2.17;;;;;;;;;;5043019;28;20075;-46
2023/05/11 05:58:55;;;;;;;13.30;2.63;;;;;;;;;;5037088;28;20045;-46
2023/05/11 06:01:23;;;;;;;13.07;2.73;;;;;;;;;;5037985;28;20037;-46
2023/05/11 06:03:51;;;;;;;14.80;3.10;;;;;;;;;;5047096;28;20860;-46
2023/05/11 06:06:20;;;;;;;11.85;2.78;;;;;;;;;;5047367;28;20466;-45
2023/05/11 06:08:48;;;;;;;12.50;3.05;;;;;;;;;;5046379;28;20048;-46
2023/05/11 06:11:15;;;;;;;11.10;2.50;;;;;;;;;;5046586;28;20044;-48
2023/05/11 06:13:43;;;;;;;14.30;2.47;;;;;;;;;;5038716;28;20068;-47
2023/05/11 06:16:12;;;;;;;12.32;2.70;;;;;;;;;;5048868;28;20137;-46
2023/05/11 06:18:40;;;;;;;11.65;2.88;;;;;;;;;;5049117;28;20413;-47
2023/05/11 06:21:07;;;;;;;20.65;3.13;;;;;;;;;;5050772;28;20090;-49
2023/05/11 06:23:37;;;;;;;12.75;2.85;;;;;;;;;;5043433;28;20130;-46
2023/05/11 06:26:04;;;;;;;12.37;2.53;;;;;;;;;;5046954;28;20071;-45
2023/05/11 06:28:32;;;;;;;16.77;3.15;;;;;;;;;;5040559;28;20488;-49
2023/05/11 06:31:00;;;;;;;16.50;2.88;;;;;;;;;;5048960;28;20142;-46
2023/05/11 06:33:27;;;;;;;12.63;2.30;;;;;;;;;;5047375;28;20089;-48
2023/05/11 06:35:55;;;;;;;10.90;2.88;;;;;;;;;;5055171;28;20054;-48
2023/05/11 06:38:22;;;;;;;20.00;2.67;;;;;;;;;;5037689;28;20059;-49
2023/05/11 06:40:53;;;;;;;12.82;2.70;;;;;;;;;;5050085;28;20044;-47
2023/05/11 06:43:20;;;;;;;17.30;3.58;;;;;;;;;;5046498;28;20132;-48
2023/05/11 06:45:48;;;;;;;10.60;2.45;;;;;;;;;;5036258;28;20041;-50
2023/05/11 06:48:16;;;;;;;15.35;2.60;;;;;;;;;;5042603;28;20044;-50
2023/05/11 06:50:43;;;;;;;13.70;2.73;;;;;;;;;;5041631;28;20814;-48
2023/05/11 06:53:11;;;;;;;14.00;2.90;;;;;;;;;;5037940;28;20061;-47
2023/05/11 06:55:39;;;;;;;11.38;2.80;;;;;;;;;;5046976;28;20028;-47
2023/05/11 06:58:08;;;;;;;18.35;2.85;;;;;;;;;;5039254;28;20343;-51
2023/05/11 07:00:35;;;;;;;16.10;2.88;;;;;;;;;;5043503;28;20067;-46
2023/05/11 07:03:03;;;;;;;18.90;3.03;;;;;;;;;;5046868;28;20040;-50
2023/05/11 07:05:31;;;;;;;12.98;2.67;;;;;;;;;;5045780;28;20048;-47
2023/05/11 07:07:58;;;;;;;15.13;2.97;;;;;;;;;;5045921;28;20118;-46
2023/05/11 07:10:26;;;;;;;14.77;2.80;;;;;;;;;;5041954;28;20079;-46
2023/05/11 07:12:54;;;;;;;12.32;2.42;;;;;;;;;;5042298;28;20041;-46
2023/05/11 07:15:24;;;;;;;13.20;2.13;;;;;;;;;;5037714;28;20136;-45
2023/05/11 07:17:52;;;;;;;8.73;2.22;;;;;;;;;;5038682;28;20045;-48
2023/05/11 07:20:20;;;;;;;8.73;2.38;;;;;;;;;;5031432;28;20517;-48
2023/05/11 07:22:48;;;;;;;11.82;2.13;;;;;;;;;;5046084;28;20032;-48
2023/05/11 07:25:16;;;;;;;12.25;1.95;;;;;;;;;;5029373;28;20040;-47
2023/05/11 07:27:43;;;;;;;10.00;1.70;;;;;;;;;;5039246;28;20064;-47
2023/05/11 07:30:11;;;;;;;11.95;1.85;;;;;;;;;;5033826;28;20617;-47
2023/05/11 07:32:41;;;;;;;11.05;2.17;;;;;;;;;;5047417;28;20044;-46
2023/05/11 07:35:08;;;;;;;10.18;2.08;;;;;;;;;;5043744;28;20040;-49
2023/05/11 07:37:36;;;;;;;11.93;2.10;;;;;;;;;;5072584;28;20056;-48
2023/05/11 07:40:04;;;;;;;11.93;1.80;;;;;;;;;;5040368;28;20972;-49
2023/05/11 07:42:32;;;;;;;13.05;1.83;;;;;;;;;;5072880;28;20040;-48
2023/05/11 07:45:00;;;;;;;12.65;2.15;;;;;;;;;;5072648;28;20127;-47
2023/05/11 07:47:28;;;;;;;9.05;1.95;;;;;;;;;;5047873;28;20448;-51
2023/05/11 07:49:57;;;;;;;8.27;2.03;;;;;;;;;;5029687;28;20032;-47
2023/05/11 07:52:25;;;;;;;11.73;2.00;;;;;;;;;;5044674;28;20116;-44
2023/05/11 07:54:53;;;;;;;7.45;1.90;;;;;;;;;;5045697;28;20118;-46
2023/05/11 07:57:20;;;;;;;8.65;1.95;;;;;;;;;;5040021;28;20060;-45
2023/05/11 07:59:49;;;;;;;9.48;1.90;;;;;;;;;;5043737;28;20117;-46
2023/05/11 08:02:17;;;;;;;9.75;1.65;;;;;;;;;;5039402;28;20043;-46
2023/05/11 08:04:47;;;;;;;6.30;1.20;;;;;;;;;;5044256;28;20037;-47
2023/05/11 08:07:16;;;;;;;8.13;1.70;;;;;;;;;;5040700;28;20039;-47
2023/05/11 08:09:46;;;;;;;7.30;1.35;;;;;;;;;;5028238;28;20757;-47
2023/05/11 08:12:14;;;;;;;5.80;1.60;;;;;;;;;;5032910;28;20113;-48
2023/05/11 08:14:42;;;;;;;7.70;1.60;;;;;;;;;;5030415;28;20303;-47
2023/05/11 08:17:10;;;;;;;6.40;1.67;;;;;;;;;;5032583;28;20056;-47
2023/05/11 08:19:38;;;;;;;7.95;1.27;;;;;;;;;;5036292;28;20049;-45
2023/05/11 08:22:06;;;;;;;8.85;1.75;;;;;;;;;;5032051;28;20135;-46
2023/05/11 08:24:35;;;;;;;7.00;1.30;;;;;;;;;;5042112;28;20579;-46
2023/05/11 08:27:03;;;;;;;5.85;1.60;;;;;;;;;;5027983;28;20079;-46
2023/05/11 08:29:31;;;;;;;9.43;1.23;;;;;;;;;;5036601;28;20040;-51
2023/05/11 08:31:59;;;;;;;5.82;1.40;;;;;;;;;;5031068;28;20471;-46
2023/05/11 08:34:26;;;;;;;9.70;1.20;;;;;;;;;;5038145;28;20636;-47
2023/05/11 08:36:55;;;;;;;8.38;1.20;;;;;;;;;;5032840;28;20458;-46
2023/05/11 08:39:22;;;;;;;6.43;1.30;;;;;;;;;;5029342;28;20106;-48
2023/05/11 08:42:13;;;;;;;5.40;1.00;;;;;;;;;;5035626;28;20048;-49
2023/05/11 08:44:42;;;;;;;3.97;0.63;;;;;;;;;;5034721;28;20048;-49
2023/05/11 08:47:10;;;;;;;4.05;0.60;;;;;;;;;;5022819;28;20052;-47
2023/05/11 08:49:40;;;;;;;6.07;0.80;;;;;;;;;;5038098;28;20115;-47
2023/05/11 08:52:09;;;;;;;6.18;1.05;;;;;;;;;;5035295;28;20449;-47
2023/05/11 08:54:37;;;;;;;6.33;1.13;;;;;;;;;;5038715;28;20116;-50
2023/05/11 08:57:06;;;;;;;4.72;1.20;;;;;;;;;;5030044;28;20044;-45
2023/05/11 08:59:35;;;;;;;4.22;1.00;;;;;;;;;;5031550;28;21138;-46
2023/05/11 09:02:04;;;;;;;6.80;1.30;;;;;;;;;;5032415;28;20587;-46
2023/05/11 09:04:33;;;;;;;6.57;0.80;;;;;;;;;;5035121;28;20051;-48
2023/05/11 09:07:01;;;;;;;4.00;1.00;;;;;;;;;;5027676;28;20430;-46
2023/05/11 09:09:28;;;;;;;4.47;0.68;;;;;;;;;;5033971;28;20114;-48
2023/05/11 09:11:56;;;;;;;9.65;1.00;;;;;;;;;;5032902;28;20683;-47
2023/05/11 09:14:24;;;;;;;4.32;0.77;;;;;;;;;;5035994;28;20102;-47
2023/05/11 09:16:57;;;;;;;4.45;0.60;;;;;;;;;;5032894;28;20044;-46
2023/05/11 09:19:25;;;;;;;5.50;0.70;;;;;;;;;;5035179;28;20578;-48
2023/05/11 09:21:53;;;;;;;4.68;1.00;;;;;;;;;;5032834;28;20577;-47
2023/05/11 09:24:21;;;;;;;3.20;0.73;;;;;;;;;;5027475;28;20133;-47
2023/05/11 09:26:50;;;;;;;5.53;1.10;;;;;;;;;;5033814;28;20809;-47
2023/05/11 09:29:19;;;;;;;5.97;0.70;;;;;;;;;;5025399;28;20048;-47
2023/05/11 09:31:47;;;;;;;3.57;0.77;;;;;;;;;;5034540;28;20066;-48
2023/05/11 09:34:17;;;;;;;3.97;0.60;;;;;;;;;;5034971;28;20110;-47
2023/05/11 09:36:46;;;;;;;4.45;0.80;;;;;;;;;;5032700;28;20052;-50
2023/05/11 09:39:13;;;;;;;9.88;0.90;;;;;;;;;;5027828;28;20044;-51
2023/05/11 09:41:43;;;;;;;4.72;0.75;;;;;;;;;;5035255;28;21465;-49
2023/05/11 09:44:11;;;;;;;7.83;0.47;;;;;;;;;;5037496;28;20037;-47
2023/05/11 09:46:40;;;;;;;3.10;0.50;;;;;;;;;;5029638;28;20037;-46
2023/05/11 09:49:08;;;;;;;4.95;1.42;;;;;;;;;;5029707;28;20053;-48
2023/05/11 09:51:39;;;;;;;4.03;0.80;;;;;;;;;;5032644;28;20051;-46
2023/05/11 09:54:17;;;;;;;4.65;0.82;;;;;;;;;;5037501;28;20426;-45
2023/05/11 09:56:46;;;;;;;3.27;0.63;;;;;;;;;;5031389;28;20028;-46
2023/05/11 09:59:17;;;;;;;5.70;0.85;;;;;;;;;;5031058;28;20044;-48
2023/05/11 10:01:48;;;;;;;5.55;1.33;;;;;;;;;;5028932;28;20119;-47
2023/05/11 10:04:15;;;;;;;4.03;0.80;;;;;;;;;;5034102;28;20406;-47
2023/05/11 10:06:52;;;;;;;2.40;0.50;;;;;;;;;;5028466;28;20498;-47
2023/05/11 10:09:23;;;;;;;4.23;0.63;;;;;;;;;;5029398;28;20483;-48
2023/05/11 10:11:51;;;;;;;4.85;0.50;;;;;;;;;;5032817;28;20118;-47
2023/05/11 10:14:19;;;;;;;5.30;0.73;;;;;;;;;;5037405;28;20066;-46
2023/05/11 10:16:47;;;;;;;4.00;0.70;;;;;;;;;;5025383;28;20052;-48
2023/05/11 10:19:15;;;;;;;8.10;1.17;;;;;;;;;;5044542;28;20084;-46
2023/05/11 10:21:43;;;;;;;4.37;0.60;;;;;;;;;;5041076;28;20052;-48
2023/05/11 10:24:12;;;;;;;5.70;0.98;;;;;;;;;;5034333;28;20126;-49
2023/05/11 10:26:41;;;;;;;4.85;1.02;;;;;;;;;;5043606;28;20036;-49
2023/05/11 10:29:09;;;;;;;4.75;0.90;;;;;;;;;;5041784;28;20043;-48
2023/05/11 10:31:37;;;;;;;3.60;0.70;;;;;;;;;;5054206;28;20561;-46
2023/05/11 10:34:05;;;;;;;3.10;0.60;;;;;;;;;;5037359;28;20132;-46
2023/05/11 10:36:33;;;;;;;4.55;1.20;;;;;;;;;;5047610;28;20052;-47
2023/05/11 10:39:01;;;;;;;7.15;1.00;;;;;;;;;;5050284;28;20040;-49
2023/05/11 10:41:34;;;;;;;4.75;0.85;;;;;;;;;;5036545;28;20048;-50
2023/05/11 10:44:31;;;;;;;4.75;0.88;;;;;;;;;;5035039;28;20112;-49
2023/05/11 10:47:07;;;;;;;3.60;0.73;;;;;;;;;;5046000;28;20079;-48
2023/05/11 10:49:46;;;;;;;5.20;0.82;;;;;;;;;;5038364;28;20037;-47
2023/05/11 10:52:27;;;;;;;6.35;1.02;;;;;;;;;;5046098;28;20061;-48
2023/05/11 10:55:06;;;;;;;5.60;0.50;;;;;;;;;;5045261;28;20032;-51
2023/05/11 10:57:43;;;;;;;5.38;0.90;;;;;;;;;;5038539;28;20037;-47
2023/05/11 11:00:34;;;;;;;4.63;0.60;;;;;;;;;;5046212;28;20044;-54
2023/05/11 11:03:09;;;;;;;3.83;0.68;;;;;;;;;;5045821;28;20044;-47
2023/05/11 11:05:37;;;;;;;6.32;0.57;;;;;;;;;;5042751;28;20040;-47
2023/05/11 11:08:09;;;;;;;3.70;0.50;;;;;;;;;;5048500;28;20043;-46
2023/05/11 11:10:42;;;;;;;6.45;0.70;;;;;;;;;;5035691;28;20041;-48
2023/05/11 11:13:12;;;;;;;3.67;0.50;;;;;;;;;;5023861;28;20040;-47
2023/05/11 11:15:59;;;;;;;5.07;0.65;;;;;;;;;;5035666;28;20145;-48
2023/05/11 11:18:27;;;;;;;3.08;0.80;;;;;;;;;;5021096;28;20622;-48
2023/05/11 11:20:56;;;;;;;3.83;0.40;;;;;;;;;;5032732;28;20633;-47
2023/05/11 11:23:39;;;;;;;2.50;0.40;;;;;;;;;;5034959;28;20076;-45
2023/05/11 11:26:07;;;;;;;2.60;0.40;;;;;;;;;;5035181;28;20491;-46
2023/05/11 11:28:49;;;;;;;4.28;0.50;;;;;;;;;;5018262;28;20139;-48
2023/05/11 11:31:26;;;;;;;3.88;0.80;;;;;;;;;;5033721;28;20041;-46
2023/05/11 11:33:57;;;;;;;2.80;0.50;;;;;;;;;;5030596;28;20051;-46
2023/05/11 11:36:39;;;;;;;3.33;0.55;;;;;;;;;;5033879;28;20072;-46
2023/05/11 11:39:07;;;;;;;4.50;0.73;;;;;;;;;;5024103;28;20438;-47
2023/05/11 11:41:36;;;;;;;2.28;0.50;;;;;;;;;;5031567;28;20162;-49
2023/05/11 11:44:04;;;;;;;2.60;0.52;;;;;;;;;;5034394;28;20427;-47
2023/05/11 11:46:33;;;;;;;4.40;0.60;;;;;;;;;;5028727;28;20411;-46
2023/05/11 11:49:08;;;;;;;3.25;0.65;;;;;;;;;;5030824;28;20052;-51
2023/05/11 11:51:38;;;;;;;3.53;0.60;;;;;;;;;;5028214;28;20051;-46
2023/05/11 11:54:06;;;;;;;3.35;0.52;;;;;;;;;;5035519;28;20490;-46
2023/05/11 11:56:38;;;;;;;4.95;0.45;;;;;;;;;;5025164;28;20766;-49
2023/05/11 11:59:09;;;;;;;5.28;0.60;;;;;;;;;;5024254;28;20470;-45
2023/05/11 12:01:38;;;;;;;3.38;0.70;;;;;;;;;;5034536;28;20079;-47
2023/05/11 12:04:35;;;;;;;3.07;0.60;;;;;;;;;;5032129;28;20498;-47
2023/05/11 12:07:07;;;;;;;2.67;0.40;;;;;;;;;;5027211;28;20410;-46
2023/05/11 12:09:36;;;;;;;4.20;0.60;;;;;;;;;;5031129;28;20095;-47
2023/05/11 12:12:05;;;;;;;5.40;0.80;;;;;;;;;;5025903;28;20032;-48
2023/05/11 12:14:33;;;;;;;3.22;0.70;;;;;;;;;;5033349;28;20550;-46
2023/05/11 12:17:03;;;;;;;4.03;0.80;;;;;;;;;;5033507;28;20036;-49
2023/05/11 12:19:30;;;;;;;3.65;0.55;;;;;;;;;;5022979;28;20076;-49
2023/05/11 12:22:01;;;;;;;3.00;0.68;;;;;;;;;;5034796;28;20779;-47
2023/05/11 12:24:28;;;;;;;3.10;0.60;;;;;;;;;;5029443;28;20049;-47
2023/05/11 12:26:57;;;;;;;4.18;0.63;;;;;;;;;;5020842;28;20049;-47
2023/05/11 12:29:25;;;;;;;2.93;0.67;;;;;;;;;;5021977;28;20044;-46
2023/05/11 12:31:54;;;;;;;3.53;0.60;;;;;;;;;;5026319;28;20044;-49
2023/05/11 12:34:23;;;;;;;3.92;0.57;;;;;;;;;;5031938;28;20041;-47
2023/05/11 12:36:52;;;;;;;4.07;0.55;;;;;;;;;;5025569;28;21119;-51
2023/05/11 12:39:21;;;;;;;5.60;0.90;;;;;;;;;;5025441;28;20151;-48
2023/05/11 12:41:49;;;;;;;3.97;0.73;;;;;;;;;;5023231;28;20025;-49
2023/05/11 12:44:16;;;;;;;3.10;0.60;;;;;;;;;;5031325;28;20127;-47
2023/05/11 12:46:45;;;;;;;3.80;0.60;;;;;;;;;;5033867;28;20315;-46
2023/05/11 12:49:16;;;;;;;3.50;0.80;;;;;;;;;;5019152;28;20044;-48
2023/05/11 12:52:01;;;;;;;2.95;0.70;;;;;;;;;;5030353;28;20044;-49
2023/05/11 12:54:30;;;;;;;4.00;0.67;;;;;;;;;;5031761;28;20047;-47
2023/05/11 12:56:58;;;;;;;3.70;0.43;;;;;;;;;;5025354;28;20052;-47
2023/05/11 12:59:27;;;;;;;4.30;0.75;;;;;;;;;;5017818;28;20072;-46
2023/05/11 13:01:54;;;;;;;2.33;0.38;;;;;;;;;;5062743;28;20055;-48
2023/05/11 13:04:29;;;;;;;4.05;0.73;;;;;;;;;;5034033;28;20532;-48
2023/05/11 13:06:58;;;;;;;2.67;0.70;;;;;;;;;;5028143;28;20041;-46
2023/05/11 13:09:26;;;;;;;2.88;0.57;;;;;;;;;;5030252;28;20435;-47
2023/05/11 13:12:09;;;;;;;5.45;0.68;;;;;;;;;;5029851;28;20060;-46
2023/05/11 13:14:37;;;;;;;3.15;0.60;;;;;;;;;;5023776;28;20793;-46
2023/05/11 13:17:05;;;;;;;2.22;0.43;;;;;;;;;;5034401;28;20120;-50
2023/05/11 13:19:33;;;;;;;2.03;0.43;;;;;;;;;;5028193;28;20053;-46
2023/05/11 13:22:03;;;;;;;3.25;0.60;;;;;;;;;;5035333;28;20522;-47
2023/05/11 13:24:30;;;;;;;3.08;0.40;;;;;;;;;;5023460;28;20067;-46
2023/05/11 13:27:00;;;;;;;3.40;0.30;;;;;;;;;;5031726;28;20391;-48
2023/05/11 13:29:28;;;;;;;2.35;0.70;;;;;;;;;;5017518;28;20037;-45
2023/05/11 13:31:56;;;;;;;3.13;0.40;;;;;;;;;;5033742;28;20132;-49
2023/05/11 13:34:25;;;;;;;2.60;0.60;;;;;;;;;;5029860;28;20048;-46
2023/05/11 13:36:52;;;;;;;3.75;0.68;;;;;;;;;;5033598;28;20303;-47
2023/05/11 13:39:22;;;;;;;3.85;0.50;;;;;;;;;;5022013;28;20113;-46
2023/05/11 13:41:49;;;;;;;3.03;0.50;;;;;;;;;;5034383;28;20038;-49
2023/05/11 13:44:19;;;;;;;2.53;0.53;;;;;;;;;;5025397;28;20131;-47
2023/05/11 13:46:47;;;;;;;3.33;0.80;;;;;;;;;;5033388;28;20036;-48
2023/05/11 13:49:14;;;;;;;2.97;0.70;;;;;;;;;;5021810;28;20041;-49
2023/05/11 13:51:42;;;;;;;3.15;0.52;;;;;;;;;;5035773;28;20124;-49
2023/05/11 13:54:11;;;;;;;5.53;0.63;;;;;;;;;;5034853;28;20127;-47
2023/05/11 13:56:41;;;;;;;4.10;0.80;;;;;;;;;;5035791;28;20036;-49
2023/05/11 13:59:08;;;;;;;3.53;0.55;;;;;;;;;;5026549;28;20059;-47
2023/05/11 14:01:36;;;;;;;2.45;0.52;;;;;;;;;;5035940;28;20048;-48
2023/05/11 14:04:04;;;;;;;4.38;0.80;;;;;;;;;;5030054;28;20029;-46
2023/05/11 14:06:33;;;;;;;4.18;0.73;;;;;;;;;;5032525;28;20036;-50
2023/05/11 14:09:01;;;;;;;3.27;0.90;;;;;;;;;;5024471;28;20110;-47
2023/05/11 14:11:28;;;;;;;2.13;0.40;;;;;;;;;;5031287;28;20040;-47
2023/05/11 14:13:59;;;;;;;2.60;0.70;;;;;;;;;;5032980;28;20042;-49
2023/05/11 14:16:27;;;;;;;4.25;0.60;;;;;;;;;;5029925;28;20076;-48
2023/05/11 14:18:55;;;;;;;4.22;0.50;;;;;;;;;;5027503;28;20061;-50
2023/05/11 14:21:22;;;;;;;2.80;0.70;;;;;;;;;;5033118;28;20052;-47
2023/05/11 14:23:51;;;;;;;3.03;0.73;;;;;;;;;;5029853;28;20048;-45
2023/05/11 14:26:37;;;;;;;3.58;0.80;;;;;;;;;;5034221;28;20036;-46
2023/05/11 14:29:07;;;;;;;2.42;0.68;;;;;;;;;;5019088;28;20064;-47
2023/05/11 14:31:35;;;;;;;3.10;0.63;;;;;;;;;;5034645;28;20130;-49
2023/05/11 14:34:03;;;;;;;2.77;0.53;;;;;;;;;;5031774;28;20064;-47
2023/05/11 14:36:31;;;;;;;4.40;0.70;;;;;;;;;;5033786;28;20183;-50
2023/05/11 14:38:59;;;;;;;3.15;0.50;;;;;;;;;;5018531;28;20828;-49
2023/05/11 14:41:26;;;;;;;3.17;0.55;;;;;;;;;;5035439;28;20048;-47
2023/05/11 14:43:55;;;;;;;3.65;0.75;;;;;;;;;;5031478;28;20071;-48
2023/05/11 14:46:24;;;;;;;2.57;0.70;;;;;;;;;;5024526;28;20041;-46
2023/05/11 14:48:53;;;;;;;3.67;0.60;;;;;;;;;;5019781;28;20507;-47
2023/05/11 14:51:21;;;;;;;2.75;0.65;;;;;;;;;;5032189;28;20043;-48